RYR50D EGNT-ESMS
Flight info
| Callsign | RYR50D |
|---|---|
| Flight time | 1h 39m |
| Altitude | 39000 |
| Route | GIRLI DCT PELET DCT SIVSU DCT ASBIL DCT TUDLO DCT ROBUS DCT DETUS |
| Aircraft | A319/M-SDE3FGHIRWY/LB1 |
Departure
| Time | 2026-04-28 17:25 |
|---|---|
| Airport | Newcastle International Airport (EGNT) |
Arrival
| Time | 2026-04-28 19:05 |
|---|---|
| Airport | Malmö Sturup Airport (ESMS) |
| Time | Latitude | Longitude | Altitude | Speed | Heading |
|---|---|---|---|---|---|
| 2026-04-28 16:49 | 55.03674 | -1.70836 | 272 ft | 0 kts | 3° |
| 2026-04-28 17:15 | 55.03664 | -1.70837 | 272 ft | 2 kts | 3° |
| 2026-04-28 17:15 | 55.03649 | -1.70838 | 272 ft | 2 kts | 1° |
| 2026-04-28 17:15 | 55.03634 | -1.70838 | 272 ft | 2 kts | 359° |
| 2026-04-28 17:16 | 55.03619 | -1.70838 | 272 ft | 2 kts | 358° |
| 2026-04-28 17:16 | 55.03604 | -1.70836 | 272 ft | 2 kts | 360° |
| 2026-04-28 17:16 | 55.03589 | -1.70838 | 272 ft | 2 kts | 4° |
| 2026-04-28 17:16 | 55.03574 | -1.70840 | 272 ft | 1 kts | 3° |
| 2026-04-28 17:17 | 55.03573 | -1.70840 | 272 ft | 0 kts | 3° |
| 2026-04-28 17:19 | 55.03579 | -1.70839 | 272 ft | 1 kts | 5° |
| 2026-04-28 17:19 | 55.03593 | -1.70829 | 272 ft | 3 kts | 38° |
| 2026-04-28 17:20 | 55.03601 | -1.70772 | 271 ft | 7 kts | 92° |
| 2026-04-28 17:20 | 55.03598 | -1.70704 | 269 ft | 9 kts | 93° |
| 2026-04-28 17:20 | 55.03529 | -1.70636 | 268 ft | 7 kts | 182° |
| 2026-04-28 17:20 | 55.03477 | -1.70638 | 268 ft | 4 kts | 180° |
| 2026-04-28 17:21 | 55.03476 | -1.70638 | 268 ft | 0 kts | 180° |
| 2026-04-28 17:23 | 55.03475 | -1.70638 | 268 ft | 1 kts | 180° |
| 2026-04-28 17:23 | 55.03428 | -1.70639 | 268 ft | 9 kts | 180° |
| 2026-04-28 17:24 | 55.03375 | -1.70585 | 267 ft | 11 kts | 96° |
| 2026-04-28 17:24 | 55.03401 | -1.70456 | 265 ft | 10 kts | 65° |
| 2026-04-28 17:24 | 55.03458 | -1.70240 | 263 ft | 44 kts | 65° |
| 2026-04-28 17:24 | 55.03702 | -1.69324 | 248 ft | 119 kts | 65° |
| 2026-04-28 17:25 | 55.04116 | -1.67785 | 536 ft | 149 kts | 64° |
| 2026-04-28 17:25 | 55.04965 | -1.64679 | 2122 ft | 142 kts | 65° |
| 2026-04-28 17:25 | 55.05390 | -1.63067 | 2658 ft | 155 kts | 66° |
| 2026-04-28 17:26 | 55.05862 | -1.61265 | 3148 ft | 173 kts | 66° |
| 2026-04-28 17:26 | 55.06353 | -1.59231 | 3654 ft | 191 kts | 75° |
| 2026-04-28 17:26 | 55.06334 | -1.56888 | 4300 ft | 203 kts | 103° |
| 2026-04-28 17:26 | 55.05627 | -1.54723 | 5008 ft | 218 kts | 131° |
| 2026-04-28 17:27 | 55.04287 | -1.53352 | 5684 ft | 240 kts | 162° |
| 2026-04-28 17:27 | 55.02549 | -1.53184 | 6302 ft | 261 kts | 176° |
| 2026-04-28 17:27 | 55.00662 | -1.53235 | 6894 ft | 278 kts | 176° |
| 2026-04-28 17:27 | 54.98704 | -1.53294 | 7539 ft | 286 kts | 180° |
| 2026-04-28 17:28 | 54.96733 | -1.54095 | 8070 ft | 300 kts | 200° |
| 2026-04-28 17:28 | 54.93081 | -1.57737 | 9930 ft | 307 kts | 209° |
| 2026-04-28 17:28 | 54.91253 | -1.59691 | 10754 ft | 312 kts | 208° |
| 2026-04-28 17:29 | 54.89372 | -1.61672 | 11306 ft | 327 kts | 208° |
| 2026-04-28 17:29 | 54.87356 | -1.63750 | 11727 ft | 346 kts | 207° |
| 2026-04-28 17:29 | 54.85249 | -1.65904 | 12113 ft | 364 kts | 208° |
| 2026-04-28 17:30 | 54.80697 | -1.70456 | 13161 ft | 386 kts | 201° |
| 2026-04-28 17:30 | 54.75599 | -1.70707 | 14547 ft | 368 kts | 152° |
| 2026-04-28 17:30 | 54.73471 | -1.68368 | 15244 ft | 359 kts | 130° |
| 2026-04-28 17:31 | 54.72016 | -1.64981 | 15912 ft | 351 kts | 111° |
| 2026-04-28 17:31 | 54.71321 | -1.56893 | 17080 ft | 349 kts | 85° |
| 2026-04-28 17:32 | 54.71418 | -1.48404 | 18182 ft | 360 kts | 86° |
| 2026-04-28 17:32 | 54.71455 | -1.44072 | 18791 ft | 362 kts | 86° |
| 2026-04-28 17:32 | 54.71490 | -1.39697 | 19387 ft | 365 kts | 85° |
| 2026-04-28 17:32 | 54.71521 | -1.35326 | 19945 ft | 368 kts | 85° |
| 2026-04-28 17:33 | 54.71552 | -1.30917 | 20505 ft | 371 kts | 86° |
| 2026-04-28 17:33 | 54.71579 | -1.26486 | 21020 ft | 374 kts | 86° |
| 2026-04-28 17:33 | 54.71606 | -1.21970 | 21614 ft | 375 kts | 86° |
| 2026-04-28 17:33 | 54.71614 | -1.20468 | 21818 ft | 375 kts | 86° |
| 2026-04-28 17:34 | 54.71653 | -1.12970 | 22710 ft | 378 kts | 86° |
| 2026-04-28 17:34 | 54.71676 | -1.08441 | 23192 ft | 381 kts | 86° |
| 2026-04-28 17:34 | 54.71697 | -1.03879 | 23672 ft | 383 kts | 86° |
| 2026-04-28 17:34 | 54.71715 | -0.99271 | 24148 ft | 386 kts | 86° |
| 2026-04-28 17:35 | 54.71730 | -0.94655 | 24600 ft | 388 kts | 86° |
| 2026-04-28 17:35 | 54.71745 | -0.89989 | 25041 ft | 391 kts | 86° |
| 2026-04-28 17:35 | 54.71757 | -0.85302 | 25485 ft | 393 kts | 86° |
| 2026-04-28 17:35 | 54.71770 | -0.80566 | 25901 ft | 396 kts | 86° |
| 2026-04-28 17:36 | 54.71780 | -0.75814 | 26317 ft | 398 kts | 86° |
| 2026-04-28 17:36 | 54.71788 | -0.71028 | 26743 ft | 400 kts | 86° |
| 2026-04-28 17:36 | 54.71795 | -0.66225 | 27141 ft | 403 kts | 86° |
| 2026-04-28 17:36 | 54.71799 | -0.61429 | 27530 ft | 405 kts | 85° |
| 2026-04-28 17:37 | 54.71801 | -0.56546 | 27895 ft | 407 kts | 85° |
| 2026-04-28 17:37 | 54.71801 | -0.51628 | 28262 ft | 410 kts | 85° |
| 2026-04-28 17:37 | 54.71801 | -0.46750 | 28607 ft | 412 kts | 85° |
| 2026-04-28 17:37 | 54.71796 | -0.41767 | 28959 ft | 414 kts | 85° |
| 2026-04-28 17:38 | 54.71792 | -0.36850 | 29354 ft | 414 kts | 85° |
| 2026-04-28 17:38 | 54.71783 | -0.31867 | 29854 ft | 411 kts | 86° |
| 2026-04-28 17:38 | 54.71771 | -0.26988 | 30343 ft | 409 kts | 86° |
| 2026-04-28 17:38 | 54.71758 | -0.22125 | 30812 ft | 408 kts | 85° |
| 2026-04-28 17:39 | 54.71745 | -0.17228 | 31256 ft | 406 kts | 85° |
| 2026-04-28 17:39 | 54.71728 | -0.12412 | 31677 ft | 406 kts | 85° |
| 2026-04-28 17:39 | 54.71694 | -0.02720 | 32520 ft | 403 kts | 85° |
| 2026-04-28 17:40 | 54.71672 | 0.02129 | 32931 ft | 402 kts | 85° |
| 2026-04-28 17:40 | 54.71650 | 0.06908 | 33307 ft | 401 kts | 85° |
| 2026-04-28 17:40 | 54.71624 | 0.11743 | 33683 ft | 400 kts | 85° |
| 2026-04-28 17:40 | 54.71598 | 0.16517 | 34048 ft | 399 kts | 85° |
| 2026-04-28 17:41 | 54.71571 | 0.21287 | 34390 ft | 399 kts | 85° |
| 2026-04-28 17:41 | 54.71541 | 0.26073 | 34727 ft | 398 kts | 84° |
| 2026-04-28 17:41 | 54.71511 | 0.30798 | 35032 ft | 396 kts | 85° |
| 2026-04-28 17:41 | 54.71479 | 0.35578 | 35314 ft | 396 kts | 85° |
| 2026-04-28 17:42 | 54.71445 | 0.40279 | 35548 ft | 396 kts | 85° |
| 2026-04-28 17:42 | 54.71421 | 0.43436 | 35708 ft | 396 kts | 85° |
| 2026-04-28 17:42 | 54.71370 | 0.49770 | 35985 ft | 397 kts | 85° |
| 2026-04-28 17:42 | 54.71328 | 0.54544 | 36191 ft | 397 kts | 85° |
| 2026-04-28 17:43 | 54.71285 | 0.59300 | 36409 ft | 397 kts | 85° |
| 2026-04-28 17:43 | 54.71240 | 0.64058 | 36640 ft | 397 kts | 85° |
| 2026-04-28 17:43 | 54.71193 | 0.68788 | 36902 ft | 397 kts | 86° |
| 2026-04-28 17:43 | 54.71145 | 0.73518 | 37162 ft | 397 kts | 86° |
| 2026-04-28 17:44 | 54.71093 | 0.78301 | 37429 ft | 397 kts | 86° |
| 2026-04-28 17:44 | 54.71042 | 0.83041 | 37669 ft | 397 kts | 86° |
| 2026-04-28 17:44 | 54.70987 | 0.87827 | 37858 ft | 398 kts | 86° |
| 2026-04-28 17:44 | 54.70931 | 0.92584 | 38016 ft | 399 kts | 86° |
| 2026-04-28 17:45 | 54.70874 | 0.97323 | 38168 ft | 401 kts | 86° |
| 2026-04-28 17:45 | 54.70813 | 1.02156 | 38301 ft | 402 kts | 86° |
| 2026-04-28 17:45 | 54.70751 | 1.07011 | 38415 ft | 403 kts | 86° |
| 2026-04-28 17:46 | 54.70620 | 1.16669 | 38670 ft | 405 kts | 86° |
| 2026-04-28 17:46 | 54.70551 | 1.21525 | 38786 ft | 405 kts | 86° |
| 2026-04-28 17:46 | 54.70482 | 1.26312 | 38894 ft | 405 kts | 86° |
| 2026-04-28 17:46 | 54.70409 | 1.31217 | 39017 ft | 406 kts | 86° |
| 2026-04-28 17:47 | 54.70334 | 1.36060 | 39075 ft | 407 kts | 86° |
| 2026-04-28 17:47 | 54.70178 | 1.45847 | 39221 ft | 409 kts | 86° |
| 2026-04-28 17:48 | 54.70013 | 1.55652 | 39370 ft | 410 kts | 86° |
| 2026-04-28 17:48 | 54.69841 | 1.65434 | 39429 ft | 411 kts | 87° |
| 2026-04-28 17:49 | 54.69659 | 1.75278 | 39392 ft | 412 kts | 87° |
| 2026-04-28 17:49 | 54.69471 | 1.85110 | 39425 ft | 412 kts | 87° |
| 2026-04-28 17:50 | 54.69271 | 1.94987 | 39423 ft | 413 kts | 87° |
| 2026-04-28 17:50 | 54.69065 | 2.04854 | 39423 ft | 412 kts | 87° |
| 2026-04-28 17:51 | 54.68853 | 2.14753 | 39415 ft | 412 kts | 87° |
| 2026-04-28 17:51 | 54.68632 | 2.24578 | 39422 ft | 412 kts | 87° |
| 2026-04-28 17:52 | 54.68403 | 2.34400 | 39407 ft | 413 kts | 87° |
| 2026-04-28 17:52 | 54.68044 | 2.49214 | 39417 ft | 413 kts | 87° |
| 2026-04-28 17:53 | 54.67795 | 2.59069 | 39410 ft | 413 kts | 87° |
| 2026-04-28 17:53 | 54.67537 | 2.68953 | 39423 ft | 413 kts | 88° |
| 2026-04-28 17:54 | 54.67272 | 2.78802 | 39416 ft | 414 kts | 88° |
| 2026-04-28 17:54 | 54.66996 | 2.88713 | 39408 ft | 414 kts | 88° |
| 2026-04-28 17:55 | 54.66711 | 2.98667 | 39416 ft | 415 kts | 88° |
| 2026-04-28 17:55 | 54.66421 | 3.08574 | 39411 ft | 414 kts | 88° |
| 2026-04-28 17:56 | 54.66121 | 3.18415 | 39409 ft | 414 kts | 87° |
| 2026-04-28 17:56 | 54.65822 | 3.28351 | 39404 ft | 414 kts | 86° |
| 2026-04-28 17:57 | 54.65892 | 3.38158 | 39405 ft | 411 kts | 81° |
| 2026-04-28 17:57 | 54.66534 | 3.47941 | 39408 ft | 408 kts | 76° |
| 2026-04-28 17:58 | 54.67722 | 3.57410 | 39397 ft | 405 kts | 70° |
| 2026-04-28 17:58 | 54.69250 | 3.66769 | 39404 ft | 406 kts | 70° |
| 2026-04-28 17:59 | 54.70779 | 3.76118 | 39405 ft | 406 kts | 70° |
| 2026-04-28 17:59 | 54.72308 | 3.85488 | 39406 ft | 407 kts | 70° |
| 2026-04-28 18:00 | 54.73835 | 3.94873 | 39414 ft | 407 kts | 70° |
| 2026-04-28 18:00 | 54.75359 | 4.04299 | 39412 ft | 407 kts | 70° |
| 2026-04-28 18:01 | 54.76872 | 4.13706 | 39412 ft | 407 kts | 70° |
| 2026-04-28 18:01 | 54.78383 | 4.23154 | 39419 ft | 407 kts | 70° |
| 2026-04-28 18:02 | 54.79882 | 4.32580 | 39407 ft | 408 kts | 70° |
| 2026-04-28 18:02 | 54.81369 | 4.41979 | 39407 ft | 408 kts | 70° |
| 2026-04-28 18:03 | 54.82857 | 4.51445 | 39410 ft | 410 kts | 70° |
| 2026-04-28 18:03 | 54.84346 | 4.60962 | 39411 ft | 410 kts | 70° |
| 2026-04-28 18:04 | 54.85822 | 4.70473 | 39410 ft | 410 kts | 71° |
| 2026-04-28 18:04 | 54.87293 | 4.80013 | 39414 ft | 411 kts | 71° |
| 2026-04-28 18:05 | 54.88514 | 4.87972 | 39420 ft | 411 kts | 70° |
| 2026-04-28 18:05 | 54.90223 | 4.99154 | 39422 ft | 411 kts | 70° |
| 2026-04-28 18:06 | 54.91670 | 5.08687 | 39421 ft | 411 kts | 70° |
| 2026-04-28 18:06 | 54.93122 | 5.18299 | 39428 ft | 412 kts | 70° |
| 2026-04-28 18:07 | 54.94561 | 5.27881 | 39422 ft | 412 kts | 70° |
| 2026-04-28 18:07 | 54.95992 | 5.37472 | 39421 ft | 412 kts | 70° |
| 2026-04-28 18:08 | 54.97416 | 5.47059 | 39419 ft | 411 kts | 70° |
| 2026-04-28 18:08 | 54.98835 | 5.56686 | 39424 ft | 411 kts | 70° |
| 2026-04-28 18:09 | 55.00245 | 5.66305 | 39420 ft | 412 kts | 71° |
| 2026-04-28 18:09 | 55.01640 | 5.75924 | 39418 ft | 412 kts | 71° |
| 2026-04-28 18:10 | 55.03030 | 5.85562 | 39418 ft | 413 kts | 71° |
| 2026-04-28 18:10 | 55.04426 | 5.95276 | 39415 ft | 413 kts | 71° |
| 2026-04-28 18:11 | 55.05807 | 6.04926 | 39411 ft | 413 kts | 71° |
| 2026-04-28 18:11 | 55.07184 | 6.14612 | 39403 ft | 413 kts | 71° |
| 2026-04-28 18:12 | 55.08556 | 6.24341 | 39403 ft | 414 kts | 71° |
| 2026-04-28 18:12 | 55.09911 | 6.33999 | 39401 ft | 414 kts | 71° |
| 2026-04-28 18:13 | 55.11294 | 6.43749 | 39403 ft | 415 kts | 71° |
| 2026-04-28 18:13 | 55.12668 | 6.53516 | 39390 ft | 414 kts | 71° |
| 2026-04-28 18:14 | 55.14014 | 6.63239 | 39396 ft | 415 kts | 71° |
| 2026-04-28 18:14 | 55.15348 | 6.73007 | 39394 ft | 415 kts | 72° |
| 2026-04-28 18:15 | 55.16671 | 6.82756 | 39395 ft | 416 kts | 71° |
| 2026-04-28 18:15 | 55.17997 | 6.92591 | 39393 ft | 417 kts | 71° |
| 2026-04-28 18:16 | 55.19317 | 7.02423 | 39395 ft | 417 kts | 72° |
| 2026-04-28 18:16 | 55.20628 | 7.12275 | 39389 ft | 417 kts | 72° |
| 2026-04-28 18:17 | 55.21930 | 7.22135 | 39390 ft | 417 kts | 71° |
| 2026-04-28 18:17 | 55.23227 | 7.32006 | 39393 ft | 416 kts | 71° |
| 2026-04-28 18:18 | 55.24513 | 7.41846 | 39400 ft | 417 kts | 71° |
| 2026-04-28 18:18 | 55.25581 | 7.50083 | 39395 ft | 418 kts | 71° |
| 2026-04-28 18:19 | 55.27064 | 7.61606 | 39407 ft | 418 kts | 71° |
| 2026-04-28 18:19 | 55.28337 | 7.71579 | 39397 ft | 419 kts | 72° |
| 2026-04-28 18:20 | 55.29588 | 7.81476 | 39395 ft | 419 kts | 72° |
| 2026-04-28 18:20 | 55.30844 | 7.91454 | 39396 ft | 420 kts | 72° |
| 2026-04-28 18:21 | 55.32090 | 8.01413 | 39385 ft | 420 kts | 72° |
| 2026-04-28 18:21 | 55.33326 | 8.11375 | 39388 ft | 420 kts | 72° |
| 2026-04-28 18:22 | 55.34566 | 8.21424 | 39387 ft | 420 kts | 72° |
| 2026-04-28 18:22 | 55.35790 | 8.31417 | 39379 ft | 421 kts | 72° |
| 2026-04-28 18:23 | 55.37011 | 8.41461 | 39373 ft | 421 kts | 72° |
| 2026-04-28 18:23 | 55.38217 | 8.51465 | 39381 ft | 421 kts | 72° |
| 2026-04-28 18:24 | 55.39223 | 8.59853 | 39379 ft | 421 kts | 72° |
| 2026-04-28 18:24 | 55.40610 | 8.71545 | 39368 ft | 422 kts | 73° |
| 2026-04-28 18:25 | 55.41798 | 8.81644 | 39383 ft | 423 kts | 72° |
| 2026-04-28 18:26 | 55.43574 | 8.96864 | 39375 ft | 424 kts | 72° |
| 2026-04-28 18:26 | 55.44740 | 9.06958 | 39377 ft | 423 kts | 72° |
| 2026-04-28 18:27 | 55.45782 | 9.17171 | 39386 ft | 427 kts | 77° |
| 2026-04-28 18:27 | 55.46110 | 9.27572 | 39377 ft | 433 kts | 84° |
| 2026-04-28 18:28 | 55.45623 | 9.38235 | 39379 ft | 440 kts | 92° |
| 2026-04-28 18:28 | 55.44355 | 9.48773 | 39382 ft | 446 kts | 97° |
| 2026-04-28 18:29 | 55.42875 | 9.59309 | 39136 ft | 440 kts | 97° |
| 2026-04-28 18:29 | 55.42142 | 9.64498 | 38586 ft | 438 kts | 96° |
| 2026-04-28 18:29 | 55.41417 | 9.69648 | 38023 ft | 436 kts | 97° |
| 2026-04-28 18:29 | 55.40699 | 9.74741 | 37500 ft | 433 kts | 97° |
| 2026-04-28 18:30 | 55.39975 | 9.79860 | 36928 ft | 432 kts | 97° |
| 2026-04-28 18:30 | 55.39732 | 9.81583 | 36733 ft | 431 kts | 97° |
| 2026-04-28 18:30 | 55.38525 | 9.90058 | 35932 ft | 430 kts | 96° |
| 2026-04-28 18:30 | 55.37808 | 9.95079 | 35439 ft | 429 kts | 96° |
| 2026-04-28 18:31 | 55.37078 | 10.00170 | 34901 ft | 429 kts | 96° |
| 2026-04-28 18:31 | 55.36356 | 10.05203 | 34266 ft | 430 kts | 96° |
| 2026-04-28 18:31 | 55.35619 | 10.10304 | 33603 ft | 429 kts | 96° |
| 2026-04-28 18:31 | 55.34886 | 10.15365 | 32909 ft | 430 kts | 96° |
| 2026-04-28 18:32 | 55.34156 | 10.20387 | 32169 ft | 431 kts | 96° |
| 2026-04-28 18:32 | 55.33413 | 10.25476 | 31415 ft | 432 kts | 96° |
| 2026-04-28 18:32 | 55.32671 | 10.30541 | 30672 ft | 432 kts | 96° |
| 2026-04-28 18:32 | 55.31923 | 10.35629 | 29830 ft | 433 kts | 96° |
| 2026-04-28 18:33 | 55.31175 | 10.40711 | 28934 ft | 435 kts | 97° |
| 2026-04-28 18:33 | 55.30416 | 10.45844 | 27967 ft | 437 kts | 97° |
| 2026-04-28 18:33 | 55.29648 | 10.51025 | 27003 ft | 439 kts | 97° |
| 2026-04-28 18:33 | 55.28881 | 10.56138 | 26315 ft | 434 kts | 97° |
| 2026-04-28 18:34 | 55.28123 | 10.61188 | 25659 ft | 429 kts | 97° |
| 2026-04-28 18:34 | 55.27366 | 10.66230 | 24953 ft | 425 kts | 98° |
| 2026-04-28 18:34 | 55.26622 | 10.71189 | 24236 ft | 422 kts | 99° |
| 2026-04-28 18:34 | 55.25887 | 10.76084 | 23531 ft | 420 kts | 99° |
| 2026-04-28 18:35 | 55.25137 | 10.81046 | 22833 ft | 417 kts | 99° |
| 2026-04-28 18:35 | 55.24406 | 10.85857 | 22164 ft | 414 kts | 99° |
| 2026-04-28 18:35 | 55.23668 | 10.90698 | 21503 ft | 411 kts | 99° |
| 2026-04-28 18:35 | 55.22937 | 10.95480 | 20869 ft | 408 kts | 99° |
| 2026-04-28 18:36 | 55.22201 | 11.00284 | 20481 ft | 406 kts | 99° |
| 2026-04-28 18:36 | 55.21472 | 11.05033 | 20391 ft | 407 kts | 99° |
| 2026-04-28 18:36 | 55.20730 | 11.09854 | 20385 ft | 409 kts | 99° |
| 2026-04-28 18:36 | 55.19987 | 11.14650 | 20385 ft | 409 kts | 99° |
| 2026-04-28 18:37 | 55.19250 | 11.19399 | 20377 ft | 409 kts | 99° |
| 2026-04-28 18:37 | 55.18510 | 11.24142 | 20106 ft | 403 kts | 99° |
| 2026-04-28 18:37 | 55.17779 | 11.28824 | 19448 ft | 402 kts | 99° |
| 2026-04-28 18:37 | 55.17045 | 11.33524 | 18763 ft | 401 kts | 100° |
| 2026-04-28 18:38 | 55.16315 | 11.38180 | 18161 ft | 399 kts | 100° |
| 2026-04-28 18:38 | 55.15580 | 11.42852 | 17602 ft | 395 kts | 100° |
| 2026-04-28 18:38 | 55.14858 | 11.47427 | 17032 ft | 392 kts | 100° |
| 2026-04-28 18:38 | 55.14143 | 11.51935 | 16503 ft | 388 kts | 100° |
| 2026-04-28 18:39 | 55.13422 | 11.56467 | 15961 ft | 385 kts | 100° |
| 2026-04-28 18:39 | 55.12715 | 11.60913 | 15453 ft | 381 kts | 101° |
| 2026-04-28 18:39 | 55.12016 | 11.65317 | 14930 ft | 377 kts | 101° |
| 2026-04-28 18:39 | 55.11395 | 11.69765 | 14383 ft | 372 kts | 98° |
| 2026-04-28 18:40 | 55.10905 | 11.74160 | 13838 ft | 368 kts | 95° |
| 2026-04-28 18:40 | 55.10537 | 11.78530 | 13290 ft | 364 kts | 92° |
| 2026-04-28 18:40 | 55.10258 | 11.82891 | 12714 ft | 361 kts | 91° |
| 2026-04-28 18:40 | 55.09986 | 11.87223 | 12167 ft | 357 kts | 92° |
| 2026-04-28 18:41 | 55.09720 | 11.91464 | 11608 ft | 354 kts | 91° |
| 2026-04-28 18:41 | 55.09451 | 11.95696 | 11047 ft | 351 kts | 91° |
| 2026-04-28 18:41 | 55.09180 | 11.99895 | 10648 ft | 336 kts | 91° |
| 2026-04-28 18:41 | 55.08922 | 12.03799 | 10192 ft | 315 kts | 91° |
| 2026-04-28 18:42 | 55.08681 | 12.07465 | 9737 ft | 297 kts | 91° |
| 2026-04-28 18:42 | 55.08450 | 12.10974 | 9502 ft | 285 kts | 91° |
| 2026-04-28 18:42 | 55.08231 | 12.14311 | 9365 ft | 278 kts | 91° |
| 2026-04-28 18:42 | 55.08013 | 12.17671 | 9356 ft | 278 kts | 90° |
| 2026-04-28 18:43 | 55.07794 | 12.21015 | 9354 ft | 278 kts | 90° |
| 2026-04-28 18:43 | 55.07574 | 12.24359 | 9351 ft | 278 kts | 90° |
| 2026-04-28 18:43 | 55.07351 | 12.27729 | 9350 ft | 278 kts | 91° |
| 2026-04-28 18:43 | 55.07128 | 12.31056 | 9348 ft | 278 kts | 91° |
| 2026-04-28 18:44 | 55.06902 | 12.34417 | 9347 ft | 278 kts | 91° |
| 2026-04-28 18:44 | 55.06451 | 12.41094 | 9351 ft | 278 kts | 91° |
| 2026-04-28 18:44 | 55.06223 | 12.44428 | 9353 ft | 277 kts | 91° |
| 2026-04-28 18:45 | 55.05993 | 12.47770 | 9350 ft | 277 kts | 91° |
| 2026-04-28 18:45 | 55.05764 | 12.51106 | 9350 ft | 277 kts | 91° |
| 2026-04-28 18:45 | 55.05537 | 12.54392 | 9351 ft | 278 kts | 91° |
| 2026-04-28 18:45 | 55.05304 | 12.57743 | 9350 ft | 278 kts | 91° |
| 2026-04-28 18:46 | 55.05072 | 12.61077 | 9350 ft | 277 kts | 91° |
| 2026-04-28 18:46 | 55.04836 | 12.64419 | 9351 ft | 277 kts | 91° |
| 2026-04-28 18:46 | 55.04601 | 12.67764 | 9352 ft | 278 kts | 91° |
| 2026-04-28 18:46 | 55.04369 | 12.71070 | 9356 ft | 278 kts | 91° |
| 2026-04-28 18:47 | 55.04132 | 12.74428 | 9356 ft | 278 kts | 92° |
| 2026-04-28 18:47 | 55.03896 | 12.77748 | 9354 ft | 279 kts | 92° |
| 2026-04-28 18:47 | 55.03652 | 12.81127 | 9358 ft | 279 kts | 92° |
| 2026-04-28 18:47 | 55.03413 | 12.84468 | 9356 ft | 278 kts | 92° |
| 2026-04-28 18:48 | 55.03175 | 12.87775 | 9355 ft | 278 kts | 92° |
| 2026-04-28 18:48 | 55.02945 | 12.91145 | 9351 ft | 276 kts | 88° |
| 2026-04-28 18:48 | 55.03109 | 12.94384 | 9346 ft | 268 kts | 71° |
| 2026-04-28 18:48 | 55.03805 | 12.97342 | 9275 ft | 258 kts | 55° |
| 2026-04-28 18:49 | 55.04895 | 12.99745 | 8878 ft | 254 kts | 40° |
| 2026-04-28 18:49 | 55.05334 | 13.00406 | 8735 ft | 253 kts | 35° |
| 2026-04-28 18:49 | 55.07945 | 13.02599 | 8085 ft | 250 kts | 15° |
| 2026-04-28 18:49 | 55.09604 | 13.03405 | 7713 ft | 249 kts | 15° |
| 2026-04-28 18:50 | 55.11285 | 13.04197 | 7304 ft | 250 kts | 15° |
| 2026-04-28 18:50 | 55.12944 | 13.04976 | 6922 ft | 249 kts | 15° |
| 2026-04-28 18:50 | 55.14611 | 13.05758 | 6547 ft | 249 kts | 15° |
| 2026-04-28 18:50 | 55.16296 | 13.06551 | 6147 ft | 249 kts | 15° |
| 2026-04-28 18:51 | 55.17949 | 13.07331 | 5773 ft | 249 kts | 15° |
| 2026-04-28 18:51 | 55.19618 | 13.08120 | 5418 ft | 247 kts | 15° |
| 2026-04-28 18:51 | 55.21276 | 13.08903 | 5047 ft | 247 kts | 15° |
| 2026-04-28 18:51 | 55.22912 | 13.09660 | 4691 ft | 246 kts | 14° |
| 2026-04-28 18:52 | 55.24583 | 13.10297 | 4343 ft | 244 kts | 11° |
| 2026-04-28 18:52 | 55.26250 | 13.10772 | 4062 ft | 242 kts | 8° |
| 2026-04-28 18:52 | 55.27939 | 13.11161 | 4024 ft | 244 kts | 8° |
| 2026-04-28 18:52 | 55.29610 | 13.11537 | 4018 ft | 244 kts | 8° |
| 2026-04-28 18:53 | 55.31302 | 13.11916 | 4013 ft | 245 kts | 7° |
| 2026-04-28 18:53 | 55.32992 | 13.12294 | 4010 ft | 244 kts | 8° |
| 2026-04-28 18:53 | 55.34673 | 13.12672 | 3960 ft | 241 kts | 8° |
| 2026-04-28 18:53 | 55.36328 | 13.13042 | 3585 ft | 242 kts | 8° |
| 2026-04-28 18:54 | 55.38000 | 13.13418 | 3175 ft | 243 kts | 8° |
| 2026-04-28 18:54 | 55.39673 | 13.13793 | 2812 ft | 242 kts | 8° |
| 2026-04-28 18:54 | 55.41335 | 13.14166 | 2546 ft | 241 kts | 8° |
| 2026-04-28 18:54 | 55.42991 | 13.14541 | 2516 ft | 242 kts | 8° |
| 2026-04-28 18:55 | 55.44653 | 13.14918 | 2508 ft | 242 kts | 8° |
| 2026-04-28 18:55 | 55.45766 | 13.15169 | 2505 ft | 241 kts | 8° |
| 2026-04-28 18:55 | 55.48006 | 13.15676 | 2507 ft | 242 kts | 8° |
| 2026-04-28 18:55 | 55.49657 | 13.16049 | 2509 ft | 242 kts | 8° |
| 2026-04-28 18:56 | 55.51344 | 13.16431 | 2512 ft | 243 kts | 8° |
| 2026-04-28 18:56 | 55.53007 | 13.16809 | 2512 ft | 244 kts | 8° |
| 2026-04-28 18:56 | 55.54698 | 13.17191 | 2503 ft | 244 kts | 8° |
| 2026-04-28 18:56 | 55.56374 | 13.17571 | 2503 ft | 244 kts | 8° |
| 2026-04-28 18:57 | 55.58045 | 13.17948 | 2505 ft | 239 kts | 8° |
| 2026-04-28 18:57 | 55.59639 | 13.18307 | 2499 ft | 225 kts | 8° |
| 2026-04-28 18:57 | 55.61175 | 13.18656 | 2505 ft | 222 kts | 9° |
| 2026-04-28 18:57 | 55.62697 | 13.19004 | 2507 ft | 221 kts | 9° |
| 2026-04-28 18:58 | 55.64235 | 13.19356 | 2509 ft | 222 kts | 9° |
| 2026-04-28 18:58 | 55.65773 | 13.19708 | 2506 ft | 222 kts | 9° |
| 2026-04-28 18:58 | 55.67302 | 13.20058 | 2509 ft | 223 kts | 8° |
| 2026-04-28 18:58 | 55.68837 | 13.20407 | 2511 ft | 222 kts | 8° |
| 2026-04-28 18:59 | 55.70340 | 13.20907 | 2509 ft | 221 kts | 20° |
| 2026-04-28 18:59 | 55.71695 | 13.22125 | 2518 ft | 220 kts | 34° |
| 2026-04-28 18:59 | 55.72927 | 13.23690 | 2509 ft | 211 kts | 36° |
| 2026-04-28 18:59 | 55.74046 | 13.25236 | 2497 ft | 197 kts | 45° |
| 2026-04-28 19:00 | 55.74621 | 13.27347 | 2491 ft | 191 kts | 83° |
| 2026-04-28 19:00 | 55.74359 | 13.29659 | 2495 ft | 198 kts | 117° |
| 2026-04-28 19:00 | 55.73396 | 13.31405 | 2516 ft | 204 kts | 141° |
| 2026-04-28 19:00 | 55.72219 | 13.32847 | 2514 ft | 207 kts | 147° |
| 2026-04-28 19:01 | 55.70883 | 13.33834 | 2510 ft | 209 kts | 161° |
| 2026-04-28 19:01 | 55.69460 | 13.34357 | 2510 ft | 210 kts | 168° |
| 2026-04-28 19:01 | 55.68008 | 13.34689 | 2508 ft | 211 kts | 171° |
| 2026-04-28 19:01 | 55.66585 | 13.34958 | 2485 ft | 198 kts | 171° |
| 2026-04-28 19:02 | 55.65242 | 13.35216 | 2367 ft | 191 kts | 170° |
| 2026-04-28 19:02 | 55.63940 | 13.35482 | 2075 ft | 189 kts | 169° |
| 2026-04-28 19:02 | 55.62644 | 13.35752 | 1797 ft | 184 kts | 170° |
| 2026-04-28 19:02 | 55.61422 | 13.36005 | 1560 ft | 173 kts | 170° |
| 2026-04-28 19:03 | 55.60263 | 13.36245 | 1318 ft | 161 kts | 170° |
| 2026-04-28 19:03 | 55.59193 | 13.36466 | 1094 ft | 147 kts | 171° |
| 2026-04-28 19:03 | 55.58216 | 13.36669 | 890 ft | 133 kts | 171° |
| 2026-04-28 19:03 | 55.57335 | 13.36851 | 724 ft | 126 kts | 171° |
| 2026-04-28 19:04 | 55.56473 | 13.37030 | 565 ft | 124 kts | 171° |
| 2026-04-28 19:04 | 55.55615 | 13.37210 | 385 ft | 123 kts | 171° |
| 2026-04-28 19:04 | 55.54748 | 13.37401 | 251 ft | 127 kts | 171° |
| 2026-04-28 19:04 | 55.53943 | 13.37564 | 227 ft | 97 kts | 173° |
| 2026-04-28 19:05 | 55.53445 | 13.37664 | 237 ft | 47 kts | 173° |
| 2026-04-28 19:05 | 55.53218 | 13.37710 | 239 ft | 19 kts | 173° |
| 2026-04-28 19:05 | 55.53082 | 13.37736 | 238 ft | 19 kts | 173° |
| 2026-04-28 19:05 | 55.52988 | 13.37712 | 236 ft | 12 kts | 241° |
| 2026-04-28 19:06 | 55.52974 | 13.37579 | 236 ft | 8 kts | 263° |
| 2026-04-28 19:06 | 55.52970 | 13.37509 | 236 ft | 8 kts | 274° |
| 2026-04-28 19:06 | 55.53050 | 13.37446 | 236 ft | 11 kts | 353° |
| 2026-04-28 19:06 | 55.53128 | 13.37430 | 237 ft | 11 kts | 353° |
| 2026-04-28 19:07 | 55.53220 | 13.37412 | 239 ft | 15 kts | 353° |
| 2026-04-28 19:07 | 55.53331 | 13.37389 | 239 ft | 16 kts | 353° |
| 2026-04-28 19:07 | 55.53453 | 13.37364 | 237 ft | 18 kts | 352° |
| 2026-04-28 19:07 | 55.53587 | 13.37336 | 236 ft | 19 kts | 353° |
| 2026-04-28 19:08 | 55.53726 | 13.37308 | 235 ft | 20 kts | 353° |
| 2026-04-28 19:08 | 55.53866 | 13.37280 | 232 ft | 16 kts | 353° |
| 2026-04-28 19:08 | 55.53956 | 13.37226 | 230 ft | 14 kts | 301° |
| 2026-04-28 19:08 | 55.53958 | 13.37078 | 230 ft | 10 kts | 263° |
| 2026-04-28 19:09 | 55.53943 | 13.36991 | 231 ft | 5 kts | 212° |
| 2026-04-28 19:09 | 55.53915 | 13.36988 | 231 ft | 4 kts | 173° |
| 2026-04-28 19:09 | 55.53886 | 13.36995 | 232 ft | 3 kts | 172° |
| 2026-04-28 19:09 | 55.53869 | 13.36999 | 232 ft | 2 kts | 172° |
| 2026-04-28 19:10 | 55.53867 | 13.37000 | 232 ft | 0 kts | 172° |